Hlavní strana
METAR-TAF:

METAR-TAF

Letiště :

Letiště Anchorage

Anchorage, Aljaška, Spojené státy americké

zeměpisná šířka: 61-10-28N, zeměpisná délka: 149-59-46W, výška: 44 m

Aktuální stav počasí

Zpráva byla vytvořena před 51 minutami, v 09:53 UTC
Jihovýchodní vítr 4 kt
Teplota 7°C
Vlhkost vzduchu 87%
Tlak 1024 hPa
Viditelnost: 16.1 km
Skoro jasno ve výšce 5000 ft

METAR: PANC 260953Z 14004KT 10SM FEW050 07/05 A3023 RMK AO2 SLP238 T00670050

Čas: 02:44 (10:44 UTC)

Předpověď počasí

Zpráva byla vytvořena před 5 hodinami a 23 minutami, v 05:21 UTC
Předpověď platná od 26 v 06 UTC do 27 v 12 UTC
vítr z různých směrů 5 kt
Viditelnost: 10 km
Skoro jasno ve výšce 5000 ft
Polojasno ve výšce 20000 ft

TAF: PANC 260521Z 2606/2712 VRB05KT P6SM FEW050 SCT200

Stav a předpovědi počasí z více než 4 000 letišť (zprávy METAR a TAF).

Červené a žluté tečky na mapě představují dostupné meteorologické stanice.

Když kurzor umístíte na tečku, zobrazí se název stanice.

Pak kliknutím zobrazíte stav a předpověď počasí.

Chcete-li změnit mapu, kliknutím na zelené tlačítko se znaménkem +mapu přiblížíte, kliknutím na zelené tlačítko se znaménkem – mapu oddálíte a kliknutím na zelené šipky přejdete na sousední mapy.


METAR-TAF: